createdAt,value
2019-05-16T00:00:19.216Z,66.81
2019-05-16T00:02:49.620Z,63.87
2019-05-16T00:05:20.617Z,65.78
2019-05-16T00:07:51.712Z,67.19
2019-05-16T00:10:22.506Z,66.27
2019-05-16T00:12:53.272Z,66.29
2019-05-16T00:15:23.995Z,68.23
2019-05-16T00:17:55.220Z,66.83
2019-05-16T00:20:28.128Z,65.81
2019-05-16T00:22:59.179Z,68.89
2019-05-16T00:25:30.081Z,67.63
2019-05-16T00:28:00.887Z,68.29
2019-05-16T00:30:33.212Z,69.60
2019-05-16T00:33:03.962Z,70.22
2019-05-16T00:35:35.238Z,71.38
2019-05-16T00:38:08.694Z,69.25
2019-05-16T00:40:39.592Z,68.32
2019-05-16T00:43:13.529Z,68.78
2019-05-16T00:45:44.261Z,68.99
2019-05-16T00:48:15.017Z,69.50
2019-05-16T00:50:48.093Z,68.79
2019-05-16T00:53:18.701Z,68.46
2019-05-16T00:55:49.517Z,67.94
2019-05-16T00:58:21.028Z,68.23
2019-05-16T01:00:51.788Z,68.28
2019-05-16T01:03:22.508Z,64.63
2019-05-16T01:05:53.253Z,68.93
2019-05-16T01:08:24.137Z,67.96
2019-05-16T01:10:54.896Z,66.17
2019-05-16T01:13:27.726Z,67.71
2019-05-16T01:15:58.160Z,66.92
2019-05-16T01:18:29.509Z,67.02
2019-05-16T01:21:00.534Z,66.57
2019-05-16T01:23:31.592Z,65.90
2019-05-16T01:26:02.716Z,64.62
2019-05-16T01:28:34.143Z,67.33
2019-05-16T01:31:04.949Z,67.39
2019-05-16T01:33:35.754Z,66.76
2019-05-16T01:36:08.805Z,67.20
2019-05-16T01:38:39.544Z,68.31
2019-05-16T01:41:10.604Z,67.28
2019-05-16T01:43:41.664Z,68.07
2019-05-16T01:46:12.694Z,62.89
2019-05-16T01:48:43.442Z,65.57
2019-05-16T01:51:14.166Z,67.44
2019-05-16T01:53:44.915Z,65.44
2019-05-16T01:56:17.809Z,67.78
2019-05-16T01:58:48.988Z,66.80
2019-05-16T02:01:20.047Z,67.09
2019-05-16T02:03:50.795Z,67.92
2019-05-16T02:06:21.511Z,68.02
2019-05-16T02:08:52.799Z,66.63
2019-05-16T02:11:23.537Z,68.99
2019-05-16T02:13:54.271Z,68.66
2019-05-16T02:16:25.237Z,65.80
2019-05-16T02:18:56.091Z,64.01
2019-05-16T02:21:28.702Z,65.61
2019-05-16T02:24:02.030Z,65.98
2019-05-16T02:26:32.460Z,65.56
2019-05-16T02:29:04.152Z,66.75
2019-05-16T02:31:34.909Z,65.03
2019-05-16T02:34:05.677Z,65.96
2019-05-16T02:36:36.451Z,64.97
2019-05-16T02:39:10.933Z,66.11
2019-05-16T02:41:45.602Z,64.62
2019-05-16T02:44:13.268Z,65.12
2019-05-16T02:46:44.061Z,65.14
2019-05-16T02:49:15.185Z,63.63
2019-05-16T02:51:45.979Z,66.68
2019-05-16T02:54:21.481Z,66.51
2019-05-16T02:56:50.823Z,65.21
2019-05-16T02:59:21.779Z,64.58
2019-05-16T03:01:52.836Z,65.79
2019-05-16T03:04:23.794Z,68.20
2019-05-16T03:06:55.817Z,66.03
2019-05-16T03:09:30.314Z,67.40
2019-05-16T03:12:01.495Z,66.65
2019-05-16T03:14:32.758Z,68.57
2019-05-16T03:17:05.150Z,67.47
2019-05-16T03:19:37.371Z,68.59
2019-05-16T03:22:08.115Z,68.49
2019-05-16T03:24:42.109Z,70.54
2019-05-16T03:27:11.767Z,67.96
2019-05-16T03:29:43.555Z,69.34
2019-05-16T03:32:14.749Z,71.00
2019-05-16T03:34:45.705Z,70.40
2019-05-16T03:37:16.864Z,69.79
2019-05-16T03:39:51.259Z,70.54
2019-05-16T03:42:20.733Z,70.93
2019-05-16T03:44:51.672Z,68.76
2019-05-16T03:47:22.624Z,69.19
2019-05-16T03:49:53.579Z,71.19
2019-05-16T03:52:24.546Z,72.19
2019-05-16T03:54:55.736Z,71.96
2019-05-16T03:57:26.547Z,72.65
2019-05-16T03:59:57.309Z,72.44
2019-05-16T04:02:30.933Z,73.07
2019-05-16T04:05:02.008Z,72.69
2019-05-16T04:07:33.161Z,71.48
2019-05-16T04:10:04.544Z,72.07
2019-05-16T04:12:35.293Z,72.95
2019-05-16T04:15:07.217Z,74.30
2019-05-16T04:17:41.252Z,74.05
2019-05-16T04:20:12.386Z,73.72
2019-05-16T04:22:43.717Z,73.48
2019-05-16T04:25:14.759Z,74.08
2019-05-16T04:27:45.795Z,73.80
2019-05-16T04:30:16.582Z,75.20
2019-05-16T04:32:47.326Z,76.00
2019-05-16T04:35:21.108Z,75.47
2019-05-16T04:37:51.530Z,74.87
2019-05-16T04:40:22.197Z,74.90
2019-05-16T04:42:53.303Z,73.88
2019-05-16T04:45:24.059Z,74.01
2019-05-16T04:47:55.150Z,73.72
2019-05-16T04:50:26.499Z,74.36
2019-05-16T04:52:57.309Z,73.74
2019-05-16T04:55:31.371Z,73.28
2019-05-16T04:58:01.427Z,72.43
2019-05-16T05:00:32.316Z,72.23
2019-05-16T05:03:03.052Z,73.25
2019-05-16T05:05:34.012Z,80.40
2019-05-16T05:08:04.919Z,87.31
2019-05-16T05:10:35.956Z,83.02
2019-05-16T05:13:07.310Z,80.16
2019-05-16T05:15:40.127Z,78.50
2019-05-16T05:18:11.243Z,75.45
2019-05-16T05:20:42.351Z,79.21
2019-05-16T05:23:13.819Z,76.13
2019-05-16T05:25:44.633Z,69.11
2019-05-16T05:28:15.399Z,68.20
2019-05-16T05:30:46.596Z,77.03
2019-05-16T05:33:17.416Z,69.07
2019-05-16T05:35:50.687Z,64.43
2019-05-16T05:38:21.684Z,62.21
2019-05-16T05:40:53.486Z,62.89
2019-05-16T05:43:24.262Z,63.36
2019-05-16T05:45:55.056Z,65.73
2019-05-16T05:48:26.056Z,64.86
2019-05-16T05:50:56.788Z,63.40
2019-05-16T05:53:30.097Z,63.01
2019-05-16T05:56:00.847Z,64.65
2019-05-16T05:58:31.775Z,62.90
2019-05-16T06:01:02.530Z,67.27
2019-05-16T06:03:33.546Z,62.05
2019-05-16T06:06:04.366Z,64.21
2019-05-16T06:08:35.762Z,62.89
2019-05-16T06:11:06.878Z,62.59
2019-05-16T06:13:40.272Z,55.43
2019-05-16T06:16:10.843Z,58.19
2019-05-16T06:18:42.353Z,54.94
2019-05-16T06:21:13.260Z,58.11
2019-05-16T06:23:44.279Z,57.40
2019-05-16T06:26:15.744Z,57.08
2019-05-16T06:28:50.252Z,56.28
2019-05-16T06:31:22.102Z,55.00
2019-05-16T06:33:53.043Z,54.87
2019-05-16T06:36:23.772Z,54.73
2019-05-16T06:38:54.777Z,52.44
2019-05-16T06:41:25.612Z,53.78
2019-05-16T06:43:56.440Z,54.60
2019-05-16T06:46:27.189Z,54.40
2019-05-16T06:48:59.650Z,52.52
2019-05-16T06:51:30.659Z,52.32
2019-05-16T06:54:01.660Z,51.45
2019-05-16T06:56:33.388Z,52.04
2019-05-16T06:59:04.203Z,53.21
2019-05-16T07:01:35.176Z,51.98
2019-05-16T07:04:06.153Z,53.79
2019-05-16T07:06:51.699Z,51.44
2019-05-16T07:09:10.521Z,51.13
2019-05-16T07:11:41.568Z,49.39
2019-05-16T07:14:12.585Z,50.57
2019-05-16T07:16:43.488Z,48.67
2019-05-16T07:19:14.514Z,49.16
2019-05-16T07:21:45.565Z,49.74
2019-05-16T07:24:17.045Z,49.06
2019-05-16T07:26:50.138Z,49.80
2019-05-16T07:29:20.601Z,49.02
2019-05-16T07:31:52.392Z,49.14
2019-05-16T07:34:23.241Z,49.37
2019-05-16T07:36:53.979Z,50.53
2019-05-16T07:39:25.057Z,48.34
2019-05-16T07:41:56.335Z,49.12
2019-05-16T07:44:30.749Z,49.79
2019-05-16T07:47:01.150Z,49.79
2019-05-16T07:49:32.313Z,47.92
2019-05-16T07:52:03.170Z,48.03
2019-05-16T07:54:34.558Z,48.03
2019-05-16T07:57:16.214Z,46.57
2019-05-16T07:59:37.879Z,46.57
2019-05-16T08:02:10.973Z,46.77
2019-05-16T08:04:41.595Z,47.86
2019-05-16T08:07:12.721Z,47.93
2019-05-16T08:09:43.588Z,46.06
2019-05-16T08:12:14.428Z,43.86
2019-05-16T08:14:45.579Z,45.17
2019-05-16T08:17:16.305Z,45.09
2019-05-16T08:19:47.287Z,44.15
2019-05-16T08:22:18.274Z,45.84
2019-05-16T08:24:50.538Z,43.64
2019-05-16T08:27:21.848Z,46.53
2019-05-16T08:29:52.972Z,46.52
2019-05-16T08:32:23.711Z,44.79
2019-05-16T08:34:54.508Z,46.21
2019-05-16T08:40:00.355Z,47.43
2019-05-16T08:45:04.318Z,47.83
2019-05-16T08:47:35.315Z,46.08
2019-05-16T08:50:11.588Z,46.40
2019-05-16T08:50:13.738Z,44.82
2019-05-16T08:52:43.532Z,45.48
2019-05-16T08:55:13.913Z,45.14
2019-05-16T08:57:44.777Z,43.86
2019-05-16T09:00:15.817Z,46.38
2019-05-16T09:02:46.892Z,45.53
2019-05-16T09:05:22.302Z,45.46
2019-05-16T09:07:50.971Z,45.97
2019-05-16T09:10:35.823Z,47.22
2019-05-16T09:12:54.225Z,44.82
2019-05-16T09:15:27.324Z,46.46
2019-05-16T09:17:58.282Z,46.00
2019-05-16T09:20:29.259Z,48.51
2019-05-16T09:23:00.336Z,48.51
2019-05-16T09:25:31.347Z,46.63
2019-05-16T09:28:02.075Z,46.06
2019-05-16T09:30:32.885Z,44.53
2019-05-16T09:33:03.688Z,45.19
2019-05-16T09:35:37.012Z,43.17
2019-05-16T09:38:07.494Z,44.39
2019-05-16T09:40:38.942Z,42.87
2019-05-16T09:43:09.961Z,43.28
2019-05-16T09:45:41.001Z,44.09
2019-05-16T09:48:11.810Z,43.75
2019-05-16T09:50:42.712Z,45.49
2019-05-16T09:53:13.811Z,44.28
2019-05-16T09:55:46.778Z,45.78
2019-05-16T09:58:18.338Z,45.06
2019-05-16T10:00:49.696Z,45.41
2019-05-16T10:03:22.611Z,43.75
2019-05-16T10:05:53.354Z,42.17
2019-05-16T10:08:26.563Z,42.73
2019-05-16T10:10:57.522Z,43.01
2019-05-16T10:13:29.574Z,42.64
2019-05-16T10:16:00.593Z,43.16
2019-05-16T10:18:31.686Z,44.07
2019-05-16T10:21:02.437Z,43.08
2019-05-16T10:23:33.640Z,42.30
2019-05-16T10:26:04.389Z,43.16
2019-05-16T10:28:38.463Z,43.47
2019-05-16T10:31:08.229Z,41.74
2019-05-16T10:33:39.295Z,41.63
2019-05-16T10:36:10.415Z,39.64
2019-05-16T10:38:41.211Z,40.73
2019-05-16T10:41:12.548Z,42.27
2019-05-16T10:43:43.273Z,38.73
2019-05-16T10:46:14.173Z,40.55
2019-05-16T10:48:46.896Z,41.12
2019-05-16T10:51:17.673Z,38.43
2019-05-16T10:54:10.512Z,39.59
2019-05-16T10:56:21.070Z,41.26
2019-05-16T10:59:34.948Z,39.66
2019-05-16T11:01:28.741Z,39.33
2019-05-16T11:03:58.405Z,38.43
2019-05-16T11:06:29.655Z,38.84
2019-05-16T11:09:00.375Z,40.09
2019-05-16T11:11:31.245Z,39.10
2019-05-16T11:14:02.119Z,41.17
2019-05-16T11:16:32.873Z,41.03
2019-05-16T11:19:14.156Z,41.75
2019-05-16T11:21:37.699Z,41.40
2019-05-16T11:24:12.276Z,40.73
2019-05-16T11:26:41.230Z,41.18
2019-05-16T11:29:12.034Z,37.93
2019-05-16T11:31:42.854Z,40.94
2019-05-16T11:34:14.325Z,40.01
2019-05-16T11:36:47.762Z,39.59
2019-05-16T11:39:19.241Z,39.14
2019-05-16T11:41:50.000Z,39.57
2019-05-16T11:44:21.297Z,39.13
2019-05-16T11:46:52.109Z,39.28
2019-05-16T11:49:22.972Z,38.89
2019-05-16T11:51:53.945Z,39.32
2019-05-16T11:54:26.630Z,39.95
2019-05-16T11:56:57.482Z,41.14
2019-05-16T11:59:28.356Z,41.21
2019-05-16T12:01:59.415Z,41.99
2019-05-16T12:04:30.135Z,41.38
2019-05-16T12:07:00.952Z,42.57
2019-05-16T12:09:34.189Z,41.63
2019-05-16T12:12:04.736Z,40.63
2019-05-16T12:14:36.747Z,39.93
2019-05-16T12:17:07.620Z,40.28
2019-05-16T12:19:43.944Z,40.83
2019-05-16T12:22:11.022Z,40.42
2019-05-16T12:24:41.996Z,41.29
2019-05-16T12:27:12.981Z,41.10
2019-05-16T12:29:43.782Z,40.14
2019-05-16T12:32:17.067Z,39.44
2019-05-16T12:34:47.875Z,40.10
2019-05-16T12:37:18.976Z,40.23
2019-05-16T12:39:49.759Z,40.93
2019-05-16T12:42:20.686Z,40.81
2019-05-16T12:44:51.877Z,40.54
2019-05-16T12:47:22.701Z,40.22
2019-05-16T12:49:53.865Z,41.18
2019-05-16T12:52:27.103Z,40.63
2019-05-16T12:54:57.682Z,41.68
2019-05-16T12:57:31.073Z,42.71
2019-05-16T13:00:01.157Z,43.10
2019-05-16T13:02:33.437Z,42.47
2019-05-16T13:05:04.453Z,41.40
2019-05-16T13:07:37.733Z,40.51
2019-05-16T13:10:09.649Z,39.72
2019-05-16T13:12:41.925Z,40.00
2019-05-16T13:15:13.145Z,40.78
2019-05-16T13:17:43.873Z,40.23
2019-05-16T13:20:17.334Z,41.89
2019-05-16T13:22:48.364Z,40.65
2019-05-16T13:25:19.766Z,41.06
2019-05-16T13:27:50.504Z,41.28
2019-05-16T13:30:21.543Z,39.11
2019-05-16T13:32:53.179Z,39.36
2019-05-16T13:35:23.926Z,40.17
2019-05-16T13:37:54.666Z,40.36
2019-05-16T13:40:27.645Z,42.32
2019-05-16T13:42:57.978Z,43.41
2019-05-16T13:45:29.288Z,42.27
2019-05-16T13:48:00.684Z,42.07
2019-05-16T13:50:31.476Z,41.40
2019-05-16T13:53:03.079Z,42.10
2019-05-16T13:55:33.923Z,41.22
2019-05-16T13:58:04.754Z,40.26
2019-05-16T14:00:37.876Z,41.09
2019-05-16T14:03:08.677Z,41.60
2019-05-16T14:05:39.732Z,41.72
2019-05-16T14:08:10.958Z,42.31
2019-05-16T14:10:41.723Z,41.36
2019-05-16T14:13:12.831Z,40.98
2019-05-16T14:15:43.706Z,40.72
2019-05-16T14:18:17.481Z,40.96
2019-05-16T14:20:47.274Z,42.18
2019-05-16T14:23:18.357Z,42.85
2019-05-16T14:25:49.088Z,44.02
2019-05-16T14:28:19.845Z,43.59
2019-05-16T14:30:50.665Z,43.94
2019-05-16T14:33:21.396Z,43.40
2019-05-16T14:35:52.550Z,46.01
2019-05-16T14:38:23.350Z,46.99
2019-05-16T14:40:54.336Z,44.74
2019-05-16T14:43:27.213Z,45.64
2019-05-16T14:45:57.860Z,45.48
2019-05-16T14:48:28.811Z,45.42
2019-05-16T14:51:00.527Z,46.39
2019-05-16T14:53:31.296Z,47.76
2019-05-16T14:56:02.321Z,47.01
2019-05-16T14:58:33.094Z,47.99
2019-05-16T15:01:04.037Z,48.79
2019-05-16T15:03:36.603Z,47.98
2019-05-16T15:06:08.421Z,48.96
2019-05-16T15:08:40.069Z,49.59
2019-05-16T15:11:14.356Z,49.07
2019-05-16T15:13:43.588Z,48.59
2019-05-16T15:16:16.751Z,49.72
2019-05-16T15:18:47.718Z,50.58
2019-05-16T15:21:18.558Z,49.79
2019-05-16T15:23:49.596Z,49.78
2019-05-16T15:26:20.951Z,50.63
2019-05-16T15:28:52.259Z,50.51
2019-05-16T15:31:22.996Z,49.02
2019-05-16T15:33:57.118Z,50.00
2019-05-16T15:36:27.213Z,50.64
2019-05-16T15:38:59.532Z,51.77
2019-05-16T15:41:30.696Z,51.98
2019-05-16T15:44:01.423Z,51.50
2019-05-16T15:46:32.233Z,52.30
2019-05-16T15:49:03.306Z,52.64
2019-05-16T15:51:36.892Z,53.23
2019-05-16T15:54:07.450Z,52.49
2019-05-16T15:56:40.536Z,53.67
2019-05-16T15:59:12.133Z,54.18
2019-05-16T16:01:43.358Z,53.88
2019-05-16T16:04:14.425Z,55.11
2019-05-16T16:06:47.430Z,55.82
2019-05-16T16:09:18.589Z,56.23
2019-05-16T16:11:49.971Z,56.65
2019-05-16T16:14:21.011Z,56.80
2019-05-16T16:16:52.253Z,56.26
2019-05-16T16:19:23.477Z,57.23
2019-05-16T16:21:54.283Z,57.88
2019-05-16T16:24:27.907Z,59.02
2019-05-16T16:26:58.081Z,58.21
2019-05-16T16:29:29.293Z,58.30
2019-05-16T16:32:00.090Z,59.89
2019-05-16T16:34:31.390Z,60.65
2019-05-16T16:37:02.155Z,60.50
2019-05-16T16:39:33.128Z,60.50
2019-05-16T16:42:03.963Z,60.72
2019-05-16T16:44:36.499Z,59.85
2019-05-16T16:47:07.402Z,61.05
2019-05-16T16:49:40.581Z,61.03
2019-05-16T16:52:11.502Z,61.14
2019-05-16T16:54:42.260Z,61.36
2019-05-16T16:57:13.084Z,61.86
2019-05-16T16:59:44.074Z,61.89
2019-05-16T17:02:17.127Z,62.74
2019-05-16T17:04:51.257Z,63.35
2019-05-16T17:07:20.092Z,63.50
2019-05-16T17:09:51.217Z,62.72
2019-05-16T17:12:23.315Z,63.07
2019-05-16T17:14:54.308Z,63.04
2019-05-16T17:17:26.550Z,63.14
2019-05-16T17:19:57.461Z,63.36
2019-05-16T17:22:28.860Z,64.38
2019-05-16T17:24:59.721Z,64.51
2019-05-16T17:27:30.866Z,64.52
2019-05-16T17:30:02.154Z,65.01
2019-05-16T17:32:34.389Z,64.72
2019-05-16T17:35:06.800Z,65.12
2019-05-16T17:37:37.683Z,65.24
2019-05-16T17:40:08.579Z,65.28
2019-05-16T17:42:39.606Z,65.68
2019-05-16T17:45:11.464Z,65.20
2019-05-16T17:47:42.693Z,65.86
2019-05-16T17:50:17.320Z,65.88
2019-05-16T17:52:48.672Z,65.78
2019-05-16T17:55:19.796Z,66.32
2019-05-16T17:57:50.632Z,66.91
2019-05-16T18:00:25.603Z,67.55
2019-05-16T18:02:56.907Z,66.56
2019-05-16T18:05:27.269Z,67.26
2019-05-16T18:07:58.394Z,67.48
2019-05-16T18:10:29.245Z,67.55
2019-05-16T18:13:00.139Z,67.98
2019-05-16T18:15:31.189Z,68.68
2019-05-16T18:18:02.256Z,68.08
2019-05-16T18:20:33.078Z,68.45
2019-05-16T18:23:03.828Z,68.67
2019-05-16T18:25:36.516Z,68.44
2019-05-16T18:28:08.480Z,68.74
2019-05-16T18:30:39.228Z,68.87
2019-05-16T18:33:10.026Z,68.88
2019-05-16T18:35:40.860Z,68.61
2019-05-16T18:38:12.108Z,69.46
2019-05-16T18:40:42.851Z,69.75
2019-05-16T18:43:13.954Z,70.13
2019-05-16T18:45:47.079Z,70.49
2019-05-16T18:48:17.823Z,70.34
2019-05-16T18:50:48.623Z,70.38
2019-05-16T18:53:20.059Z,70.65
2019-05-16T18:55:50.800Z,70.93
2019-05-16T18:58:21.888Z,71.49
2019-05-16T19:00:52.683Z,71.64
2019-05-16T19:03:23.804Z,71.10
2019-05-16T19:05:56.928Z,71.90
2019-05-16T19:08:27.254Z,72.05
2019-05-16T19:10:59.953Z,72.35
2019-05-16T19:13:32.299Z,72.39
2019-05-16T19:16:03.446Z,72.28
2019-05-16T19:18:36.679Z,72.40
2019-05-16T19:21:07.501Z,72.45
2019-05-16T19:23:38.489Z,72.65
2019-05-16T19:26:09.695Z,73.08
2019-05-16T19:28:40.515Z,73.38
2019-05-16T19:31:11.671Z,73.30
2019-05-16T19:33:43.470Z,73.78
2019-05-16T19:36:16.467Z,73.83
2019-05-16T19:38:47.162Z,73.77
2019-05-16T19:41:18.509Z,74.20
2019-05-16T19:43:49.575Z,74.77
2019-05-16T19:46:23.392Z,74.89
2019-05-16T19:48:53.385Z,74.87
2019-05-16T19:51:26.787Z,75.32
2019-05-16T19:53:57.245Z,76.33
2019-05-16T19:56:27.993Z,75.89
2019-05-16T19:58:58.818Z,75.67
2019-05-16T20:01:32.206Z,76.22
2019-05-16T20:04:02.945Z,76.35
2019-05-16T20:06:36.786Z,76.65
2019-05-16T20:09:07.990Z,76.53
2019-05-16T20:11:38.810Z,77.07
2019-05-16T20:14:09.811Z,76.86
2019-05-16T20:16:40.787Z,76.96
2019-05-16T20:19:11.675Z,77.42
2019-05-16T20:21:42.773Z,77.67
2019-05-16T20:24:13.726Z,77.37
2019-05-16T20:26:46.423Z,77.05
2019-05-16T20:29:17.544Z,77.27
2019-05-16T20:31:48.685Z,77.07
2019-05-16T20:34:20.523Z,77.24
2019-05-16T20:36:51.352Z,77.92
2019-05-16T20:39:22.739Z,78.11
2019-05-16T20:41:59.389Z,78.53
2019-05-16T20:44:26.939Z,78.50
2019-05-16T20:46:57.910Z,78.33
2019-05-16T20:49:28.918Z,78.34
2019-05-16T20:51:59.645Z,77.67
2019-05-16T20:54:30.828Z,77.89
2019-05-16T20:57:01.712Z,78.39
2019-05-16T20:59:32.816Z,79.28
2019-05-16T21:02:03.942Z,80.06
2019-05-16T21:04:37.261Z,79.66
2019-05-16T21:07:11.053Z,79.82
2019-05-16T21:09:40.599Z,80.39
2019-05-16T21:12:11.647Z,81.42
2019-05-16T21:14:42.887Z,82.20
2019-05-16T21:17:13.616Z,80.81
2019-05-16T21:19:44.457Z,81.28
2019-05-16T21:22:16.238Z,80.06
2019-05-16T21:24:47.963Z,80.58
2019-05-16T21:27:19.261Z,81.18
2019-05-16T21:29:51.444Z,82.61
2019-05-16T21:32:22.699Z,83.06
2019-05-16T21:34:53.687Z,83.59
2019-05-16T21:37:26.913Z,84.24
2019-05-16T21:39:59.723Z,83.49
2019-05-16T21:42:31.385Z,83.10
2019-05-16T21:45:02.788Z,83.52
2019-05-16T21:47:33.531Z,83.98
2019-05-16T21:50:07.254Z,83.63
2019-05-16T21:52:37.958Z,84.15
2019-05-16T21:55:09.357Z,85.33
2019-05-16T21:57:40.232Z,85.31
2019-05-16T22:00:18.940Z,86.01
2019-05-16T22:02:51.992Z,86.08
2019-05-16T22:05:23.416Z,85.59
2019-05-16T22:07:56.601Z,86.29
2019-05-16T22:10:27.158Z,86.74
2019-05-16T22:12:59.572Z,86.13
2019-05-16T22:15:30.472Z,85.93
2019-05-16T22:18:01.277Z,85.65
2019-05-16T22:20:32.172Z,85.45
2019-05-16T22:23:03.460Z,85.32
2019-05-16T22:25:34.300Z,84.89
2019-05-16T22:28:07.160Z,85.03
2019-05-16T22:30:38.571Z,82.83
2019-05-16T22:33:09.622Z,83.82
2019-05-16T22:35:40.692Z,83.67
2019-05-16T22:38:11.421Z,81.76
2019-05-16T22:40:42.585Z,82.89
2019-05-16T22:43:13.466Z,82.32
2019-05-16T22:45:46.662Z,82.75
2019-05-16T22:48:17.379Z,83.71
2019-05-16T22:50:49.110Z,84.03
2019-05-16T22:53:19.860Z,84.61
2019-05-16T22:55:50.891Z,84.44
2019-05-16T22:58:21.867Z,84.30
2019-05-16T23:00:52.599Z,84.84
2019-05-16T23:03:23.589Z,84.46
2019-05-16T23:05:56.527Z,84.51
2019-05-16T23:08:27.851Z,83.66
2019-05-16T23:10:58.588Z,84.12
2019-05-16T23:13:29.880Z,84.63
2019-05-16T23:16:00.637Z,84.70
2019-05-16T23:18:31.504Z,84.28
2019-05-16T23:21:02.552Z,83.67
2019-05-16T23:23:33.764Z,84.14
2019-05-16T23:26:06.372Z,83.64
2019-05-16T23:28:37.602Z,83.34
2019-05-16T23:31:08.916Z,83.65
2019-05-16T23:33:39.657Z,83.09
2019-05-16T23:36:11.168Z,82.72
2019-05-16T23:38:41.932Z,83.38
2019-05-16T23:41:13.177Z,83.20
2019-05-16T23:43:44.178Z,83.54
2019-05-16T23:46:16.514Z,84.38
2019-05-16T23:48:47.386Z,83.73
2019-05-16T23:51:18.297Z,83.16
2019-05-16T23:53:49.033Z,82.64
2019-05-16T23:56:20.033Z,83.92
2019-05-16T23:58:51.041Z,83.41
